Time;durP1;ratioP1;P1;durP2;ratioP2;P2;SDS_P1;SDS_P2;PMS_P1;PMS_P2;Temp;Humidity;BMP_temperature;BMP_pressure;BME280_temperature;BME280_humidity;BME280_pressure;Samples;Min_cycle;Max_cycle;Signal;HPM_P1;HPM_P2
2023/10/30 00:00:37;;;;;;;16.38;3.20;;;;;;;15.02;91.52;99497.09;4934013;29;20047;-61
2023/10/30 00:03:04;;;;;;;16.50;3.05;;;;;;;15.00;90.99;99490.31;4949607;29;20055;-61
2023/10/30 00:05:32;;;;;;;16.08;2.95;;;;;;;14.91;91.61;99498.91;4934385;29;20063;-60
2023/10/30 00:07:59;;;;;;;13.23;3.17;;;;;;;14.81;92.50;99491.22;4935209;29;20071;-60
2023/10/30 00:10:26;;;;;;;14.43;2.83;;;;;;;14.87;92.61;99491.72;4935205;29;20427;-61
2023/10/30 00:12:54;;;;;;;19.85;3.50;;;;;;;14.85;92.07;99497.63;4933998;29;20055;-61
2023/10/30 00:15:23;;;;;;;12.43;2.55;;;;;;;14.64;92.72;99497.28;4935184;29;20047;-62
2023/10/30 00:17:50;;;;;;;13.77;2.63;;;;;;;14.76;93.30;99499.84;4949729;29;20047;-61
2023/10/30 00:20:18;;;;;;;14.93;3.08;;;;;;;14.69;93.04;99496.94;4934184;29;20062;-61
2023/10/30 00:22:45;;;;;;;16.48;2.88;;;;;;;14.82;92.74;99500.34;4978017;28;20047;-61
2023/10/30 00:25:13;;;;;;;22.23;3.75;;;;;;;14.57;93.04;99502.69;4966110;28;20059;-61
2023/10/30 00:27:41;;;;;;;19.63;3.30;;;;;;;14.40;94.21;99495.66;4964837;28;20067;-61
2023/10/30 00:30:09;;;;;;;16.98;2.85;;;;;;;14.49;94.41;99487.91;4965440;28;20051;-62
2023/10/30 00:32:36;;;;;;;16.67;2.45;;;;;;;14.61;94.80;99500.75;4949605;29;20047;-62
2023/10/30 00:35:04;;;;;;;15.98;2.97;;;;;;;14.48;93.53;99482.72;4965181;28;20063;-60
2023/10/30 00:37:31;;;;;;;21.33;3.42;;;;;;;14.40;94.42;99492.88;4937489;29;20055;-61
2023/10/30 00:40:02;;;;;;;17.25;3.00;;;;;;;14.39;94.01;99487.69;4948777;29;20056;-62
2023/10/30 00:42:30;;;;;;;22.88;3.50;;;;;;;14.54;93.95;99490.34;4953168;28;20055;-61
2023/10/30 00:44:57;;;;;;;19.00;3.38;;;;;;;14.64;93.48;99488.94;4937259;29;20060;-60
2023/10/30 00:47:25;;;;;;;18.77;2.95;;;;;;;14.52;93.11;99492.69;4937052;29;20048;-60
2023/10/30 00:49:52;;;;;;;16.63;3.20;;;;;;;14.68;93.06;99485.06;4938769;28;20075;-62
2023/10/30 00:52:19;;;;;;;19.02;2.83;;;;;;;14.61;93.14;99487.72;4968687;28;20365;-61
2023/10/30 00:54:46;;;;;;;14.27;2.47;;;;;;;14.42;93.67;99484.19;4953058;29;20055;-61
2023/10/30 00:57:14;;;;;;;18.02;3.58;;;;;;;14.50;93.40;99483.16;4936168;29;20450;-62
2023/10/30 00:59:41;;;;;;;18.15;2.70;;;;;;;14.51;93.50;99491.09;4968241;28;20056;-61
2023/10/30 01:02:10;;;;;;;20.88;2.90;;;;;;;14.45;93.21;99480.69;4938213;29;20054;-61
2023/10/30 01:04:37;;;;;;;15.43;2.65;;;;;;;14.53;93.13;99491.53;4938651;29;20547;-60
2023/10/30 01:07:05;;;;;;;15.32;3.33;;;;;;;14.44;92.63;99499.28;4937359;29;20048;-61
2023/10/30 01:09:32;;;;;;;14.25;2.70;;;;;;;14.48;93.20;99493.81;4969089;28;20052;-61
2023/10/30 01:12:00;;;;;;;12.23;2.60;;;;;;;14.66;92.67;99489.38;4937809;29;20052;-62
2023/10/30 01:14:27;;;;;;;14.82;3.03;;;;;;;14.54;92.36;99486.78;4968437;28;20083;-62
2023/10/30 01:16:54;;;;;;;20.50;2.85;;;;;;;14.58;92.39;99490.41;4937599;29;20151;-60
2023/10/30 01:19:22;;;;;;;13.48;2.85;;;;;;;14.38;92.90;99486.91;4968216;28;20051;-61
2023/10/30 01:21:49;;;;;;;14.23;3.25;;;;;;;14.52;93.08;99483.59;4978675;28;20070;-60
2023/10/30 01:24:16;;;;;;;20.10;2.80;;;;;;;14.34;92.82;99474.97;4937945;29;20159;-62
2023/10/30 01:26:43;;;;;;;15.27;2.60;;;;;;;14.26;93.55;99467.69;4936387;29;20060;-62
2023/10/30 01:29:10;;;;;;;16.27;3.13;;;;;;;14.36;93.33;99466.28;4938010;28;20498;-62
2023/10/30 01:31:37;;;;;;;19.23;2.95;;;;;;;14.42;93.28;99464.78;4952319;29;20050;-62
2023/10/30 01:34:05;;;;;;;13.88;2.58;;;;;;;14.18;93.82;99462.34;4968155;28;20055;-62
2023/10/30 01:36:32;;;;;;;20.02;3.20;;;;;;;14.19;94.41;99458.44;4968356;28;20430;-62
2023/10/30 01:39:00;;;;;;;16.15;3.03;;;;;;;14.24;94.09;99469.19;4968366;28;20056;-62
2023/10/30 01:41:27;;;;;;;18.20;3.10;;;;;;;14.34;93.84;99465.84;4952426;29;20535;-62
2023/10/30 01:43:54;;;;;;;16.67;2.85;;;;;;;14.36;93.08;99455.22;4936486;29;20067;-61
2023/10/30 01:46:21;;;;;;;16.30;2.53;;;;;;;14.43;93.00;99458.91;4935890;29;20056;-60
2023/10/30 01:48:49;;;;;;;20.65;3.28;;;;;;;14.35;92.74;99459.13;4934725;29;20495;-60
2023/10/30 01:51:20;;;;;;;15.18;2.72;;;;;;;14.20;93.70;99458.06;4951273;28;20059;-60
2023/10/30 01:53:48;;;;;;;17.35;2.78;;;;;;;14.10;94.87;99446.78;4936344;29;20517;-61
2023/10/30 01:56:16;;;;;;;16.55;3.03;;;;;;;14.20;93.95;99454.47;4936637;29;20063;-61
2023/10/30 01:58:44;;;;;;;19.40;3.25;;;;;;;14.16;93.95;99446.09;4983535;28;20050;-61
2023/10/30 02:01:12;;;;;;;14.18;2.90;;;;;;;14.14;94.58;99448.44;4951672;29;20410;-62
2023/10/30 02:03:40;;;;;;;18.33;3.38;;;;;;;14.18;94.12;99441.00;4951749;29;20048;-62
2023/10/30 02:06:07;;;;;;;19.77;2.75;;;;;;;14.13;94.56;99441.31;4951829;29;20051;-62
2023/10/30 02:08:35;;;;;;;16.15;2.97;;;;;;;14.03;95.04;99439.16;4942726;28;20078;-64
2023/10/30 02:11:03;;;;;;;18.10;2.55;;;;;;;14.06;94.83;99438.41;4950775;29;20047;-62
2023/10/30 02:13:30;;;;;;;26.45;3.70;;;;;;;13.94;95.37;99444.13;4951110;28;20067;-61
2023/10/30 02:15:58;;;;;;;18.38;3.30;;;;;;;13.53;97.25;99442.91;4936500;29;20043;-61
2023/10/30 02:18:25;;;;;;;18.77;2.70;;;;;;;13.75;97.66;99437.78;4936311;29;20060;-66
2023/10/30 02:20:53;;;;;;;16.65;2.53;;;;;;;13.85;97.16;99439.97;4939657;29;20517;-61
2023/10/30 02:23:20;;;;;;;25.23;2.75;;;;;;;13.75;97.45;99440.56;4992452;28;20055;-62
2023/10/30 02:25:47;;;;;;;15.10;3.25;;;;;;;13.93;96.85;99442.50;4936658;29;20084;-61
2023/10/30 02:28:14;;;;;;;13.60;3.30;;;;;;;13.89;96.96;99435.31;4935312;29;20067;-60
2023/10/30 02:30:42;;;;;;;18.75;3.58;;;;;;;13.94;96.31;99438.59;4934009;29;20059;-60
2023/10/30 02:33:10;;;;;;;18.10;2.92;;;;;;;13.94;95.96;99441.34;4936209;28;20059;-61
2023/10/30 02:35:37;;;;;;;17.77;3.42;;;;;;;13.72;97.02;99441.31;4966640;28;20083;-61
2023/10/30 02:38:04;;;;;;;13.90;2.70;;;;;;;13.89;96.79;99438.06;4936802;28;20063;-62
2023/10/30 02:40:33;;;;;;;18.92;3.35;;;;;;;13.68;96.73;99438.47;4966068;28;20062;-61
2023/10/30 02:43:00;;;;;;;22.58;3.60;;;;;;;13.86;96.83;99427.75;4935696;29;20055;-63
2023/10/30 02:45:27;;;;;;;20.35;3.80;;;;;;;13.67;96.99;99436.84;4966906;28;20055;-61
2023/10/30 02:47:54;;;;;;;17.17;2.70;;;;;;;13.77;96.65;99427.16;4935760;29;20561;-62
2023/10/30 02:50:21;;;;;;;16.38;2.83;;;;;;;13.67;96.75;99428.53;4935258;29;20044;-60
2023/10/30 02:52:50;;;;;;;12.15;2.35;;;;;;;13.69;96.96;99426.22;4936458;29;20060;-61
2023/10/30 02:55:17;;;;;;;19.20;3.72;;;;;;;13.74;97.04;99423.16;4966492;28;20052;-62
2023/10/30 02:57:45;;;;;;;18.85;3.40;;;;;;;13.71;96.47;99412.81;4935672;29;20055;-61
2023/10/30 03:00:13;;;;;;;18.50;2.95;;;;;;;13.60;97.05;99416.56;4935429;29;20078;-61
2023/10/30 03:02:40;;;;;;;24.38;2.90;;;;;;;13.56;97.67;99410.94;4966024;28;20074;-62
2023/10/30 03:05:08;;;;;;;14.38;2.50;;;;;;;13.45;98.30;99407.97;4939310;29;20059;-62
2023/10/30 03:07:35;;;;;;;18.60;3.42;;;;;;;13.38;98.49;99401.47;4935393;29;20052;-63
2023/10/30 03:10:02;;;;;;;32.83;3.42;;;;;;;13.46;98.51;99405.97;4966782;28;20051;-62
2023/10/30 03:12:30;;;;;;;15.43;2.83;;;;;;;13.48;98.37;99400.88;4938003;29;20052;-62
2023/10/30 03:14:57;;;;;;;20.90;3.40;;;;;;;13.49;98.92;99394.19;4966628;28;20066;-61
2023/10/30 03:17:24;;;;;;;15.43;2.65;;;;;;;13.23;99.25;99397.59;4934502;29;20063;-60
2023/10/30 03:19:52;;;;;;;19.98;2.90;;;;;;;13.31;99.61;99396.59;4934607;29;20056;-61
2023/10/30 03:22:19;;;;;;;16.88;3.45;;;;;;;13.43;99.31;99388.16;4952014;28;20055;-61
2023/10/30 03:24:46;;;;;;;11.65;2.63;;;;;;;13.36;99.37;99374.19;4975265;28;20060;-61
2023/10/30 03:27:13;;;;;;;21.15;3.33;;;;;;;13.25;99.35;99375.91;4935922;28;20076;-61
2023/10/30 03:29:40;;;;;;;17.27;3.10;;;;;;;13.36;99.59;99368.66;4934443;29;20414;-61
2023/10/30 03:32:08;;;;;;;17.10;3.88;;;;;;;13.36;99.73;99374.19;4934954;29;20055;-61
2023/10/30 03:34:35;;;;;;;13.75;2.80;;;;;;;13.38;98.99;99360.00;4935026;29;20082;-61
2023/10/30 03:37:03;;;;;;;15.43;2.78;;;;;;;13.07;99.74;99372.00;4935257;29;20052;-62
2023/10/30 03:39:32;;;;;;;13.30;3.03;;;;;;;13.08;100.00;99365.28;4956994;28;20059;-61
2023/10/30 03:41:59;;;;;;;15.73;2.92;;;;;;;13.21;100.00;99360.44;4965520;28;20059;-61
2023/10/30 03:44:29;;;;;;;14.80;2.42;;;;;;;13.27;100.00;99370.03;4944943;29;20047;-62
2023/10/30 03:46:56;;;;;;;19.08;2.78;;;;;;;13.08;100.00;99372.78;4966267;28;20056;-64
2023/10/30 03:49:23;;;;;;;17.23;2.83;;;;;;;12.84;100.00;99368.28;4948998;29;20059;-61
2023/10/30 03:51:51;;;;;;;14.98;2.90;;;;;;;12.93;100.00;99368.91;4935402;29;20055;-62
2023/10/30 03:54:19;;;;;;;14.25;2.88;;;;;;;12.97;100.00;99368.97;4935661;29;20047;-61
2023/10/30 03:56:46;;;;;;;16.90;2.58;;;;;;;13.14;100.00;99369.38;4950156;28;20059;-61
2023/10/30 03:59:15;;;;;;;21.00;3.08;;;;;;;13.31;100.00;99362.59;4935144;29;20108;-62
2023/10/30 04:01:42;;;;;;;16.85;2.60;;;;;;;13.36;99.30;99365.88;4935287;29;20059;-61
2023/10/30 04:04:09;;;;;;;15.45;3.20;;;;;;;13.15;99.23;99365.44;4935382;29;20059;-61
2023/10/30 04:06:37;;;;;;;13.57;2.17;;;;;;;13.20;99.99;99365.16;4965197;28;20047;-61
2023/10/30 04:09:05;;;;;;;13.60;2.70;;;;;;;13.37;99.63;99358.41;4933792;29;20058;-61
2023/10/30 04:11:32;;;;;;;14.38;2.63;;;;;;;13.48;98.47;99351.91;4937853;29;20067;-61
2023/10/30 04:14:00;;;;;;;22.02;3.25;;;;;;;13.40;98.47;99349.38;4984697;28;20066;-61
2023/10/30 04:16:28;;;;;;;13.88;2.35;;;;;;;13.49;98.01;99347.19;4953498;29;20059;-61
2023/10/30 04:18:55;;;;;;;11.38;3.03;;;;;;;13.32;98.38;99345.66;4930131;29;20063;-62
2023/10/30 04:21:23;;;;;;;14.35;2.85;;;;;;;13.13;99.13;99348.41;4939138;29;20415;-61
2023/10/30 04:23:50;;;;;;;12.25;2.95;;;;;;;13.28;99.49;99347.56;4952340;29;20039;-61
2023/10/30 04:26:19;;;;;;;10.68;2.60;;;;;;;13.31;98.82;99366.19;4957958;29;20078;-61
2023/10/30 04:28:46;;;;;;;13.57;2.83;;;;;;;13.26;99.14;99366.47;4948996;29;20432;-62
2023/10/30 04:31:13;;;;;;;11.13;2.83;;;;;;;13.15;99.66;99368.22;4938045;29;20400;-62
2023/10/30 04:33:40;;;;;;;17.90;3.40;;;;;;;13.25;100.00;99377.91;4939238;29;20051;-62
2023/10/30 04:36:08;;;;;;;16.95;2.70;;;;;;;13.43;98.85;99368.78;4938128;29;20051;-62
2023/10/30 04:38:36;;;;;;;13.75;2.80;;;;;;;13.38;99.01;99368.28;4937462;29;20399;-61
2023/10/30 04:41:04;;;;;;;14.15;3.15;;;;;;;13.31;98.72;99363.41;4938217;29;20059;-61
2023/10/30 04:43:33;;;;;;;19.15;2.78;;;;;;;13.43;98.81;99366.03;4938038;29;20486;-63
2023/10/30 04:46:00;;;;;;;20.40;3.33;;;;;;;13.47;98.28;99369.69;4955355;28;20051;-62
2023/10/30 04:48:30;;;;;;;13.25;2.33;;;;;;;13.43;97.89;99371.56;4939044;28;20044;-62
2023/10/30 04:50:57;;;;;;;8.63;2.35;;;;;;;13.45;97.33;99371.19;4938695;28;20059;-62
2023/10/30 04:53:25;;;;;;;12.52;2.38;;;;;;;13.53;97.98;99368.19;4968078;28;20063;-62
2023/10/30 04:55:52;;;;;;;16.15;3.65;;;;;;;13.57;97.73;99357.19;4951921;28;20055;-62
2023/10/30 04:58:19;;;;;;;16.38;3.85;;;;;;;13.54;98.54;99355.97;4966373;28;20044;-61
2023/10/30 05:00:46;;;;;;;17.73;2.97;;;;;;;13.53;98.01;99357.13;4937396;29;20571;-61
2023/10/30 05:03:14;;;;;;;13.48;2.60;;;;;;;13.29;98.79;99348.34;4938220;29;20052;-61
2023/10/30 05:05:41;;;;;;;12.60;2.67;;;;;;;13.21;100.00;99343.84;4952032;28;20051;-62
2023/10/30 05:08:08;;;;;;;15.20;2.70;;;;;;;13.24;100.00;99337.56;4938136;29;20055;-61
2023/10/30 05:10:36;;;;;;;17.40;2.55;;;;;;;13.39;100.00;99331.97;4967902;28;20442;-62
2023/10/30 05:13:03;;;;;;;16.88;3.10;;;;;;;13.51;99.06;99328.25;4937222;29;20051;-61
2023/10/30 05:15:30;;;;;;;11.93;2.58;;;;;;;13.36;99.41;99329.13;4936342;29;20056;-63
2023/10/30 05:17:57;;;;;;;12.73;2.50;;;;;;;13.41;99.18;99326.88;4967851;28;20067;-62
2023/10/30 05:20:24;;;;;;;18.52;3.03;;;;;;;13.27;100.00;99315.53;4936342;29;20047;-62
2023/10/30 05:22:51;;;;;;;14.60;2.70;;;;;;;13.09;100.00;99308.81;4949488;28;20059;-62
2023/10/30 05:25:20;;;;;;;18.90;2.78;;;;;;;13.19;100.00;99307.47;4937286;29;20048;-62
2023/10/30 05:28:03;;;;;;;14.38;2.67;;;;;;;13.09;100.00;99308.81;4950185;29;20391;-62
2023/10/30 05:30:31;;;;;;;13.25;2.85;;;;;;;13.22;100.00;99307.53;4936892;29;20055;-61
2023/10/30 05:32:58;;;;;;;10.40;2.42;;;;;;;13.24;100.00;99307.16;4938318;29;20149;-61
2023/10/30 05:35:26;;;;;;;12.02;2.60;;;;;;;13.29;100.00;99302.13;4970114;28;20058;-62
2023/10/30 05:37:53;;;;;;;16.45;3.35;;;;;;;13.27;100.00;99309.19;4956777;29;20055;-62
2023/10/30 05:40:23;;;;;;;13.25;2.55;;;;;;;13.24;100.00;99304.41;4939038;28;20060;-62
2023/10/30 05:42:50;;;;;;;13.05;2.85;;;;;;;13.16;100.00;99305.44;4952011;29;20403;-63
2023/10/30 05:45:17;;;;;;;9.98;2.63;;;;;;;13.15;100.00;99312.09;4937456;29;20125;-61
2023/10/30 05:47:44;;;;;;;13.63;2.92;;;;;;;13.26;100.00;99315.91;4937792;29;20058;-61
2023/10/30 05:50:12;;;;;;;12.50;3.15;;;;;;;13.13;100.00;99322.72;4936902;29;20055;-62
2023/10/30 05:52:39;;;;;;;15.30;3.28;;;;;;;13.02;100.00;99322.50;4937421;29;20051;-62
2023/10/30 05:55:08;;;;;;;14.00;2.78;;;;;;;13.02;100.00;99318.97;4935299;29;20052;-61
2023/10/30 05:57:37;;;;;;;14.85;2.63;;;;;;;13.09;100.00;99297.78;4936486;29;20052;-61
2023/10/30 06:00:05;;;;;;;16.38;2.72;;;;;;;13.40;100.00;99300.38;4966988;28;20106;-61
2023/10/30 06:02:33;;;;;;;17.30;2.72;;;;;;;13.37;100.00;99300.31;4937096;29;20055;-62
2023/10/30 06:05:00;;;;;;;19.25;3.55;;;;;;;13.33;100.00;99303.03;4936766;29;20059;-62
2023/10/30 06:07:27;;;;;;;10.85;3.00;;;;;;;13.21;100.00;99308.72;4951777;29;20059;-61
2023/10/30 06:09:55;;;;;;;11.25;2.60;;;;;;;13.18;100.00;99322.47;4936551;29;20491;-62
2023/10/30 06:12:22;;;;;;;13.23;2.78;;;;;;;13.22;100.00;99332.41;4936797;29;20566;-61
2023/10/30 06:14:50;;;;;;;15.73;3.40;;;;;;;13.35;100.00;99322.00;4936985;29;20062;-61
2023/10/30 06:17:17;;;;;;;20.10;3.78;;;;;;;13.38;100.00;99319.31;4936813;29;20067;-61
2023/10/30 06:19:44;;;;;;;16.67;2.95;;;;;;;13.47;100.00;99303.28;4967065;28;20047;-62
2023/10/30 06:22:11;;;;;;;11.43;2.58;;;;;;;13.88;100.00;99285.03;4952886;29;20066;-61
2023/10/30 06:24:39;;;;;;;13.05;2.40;;;;;;;13.83;100.00;99279.81;4936222;29;20051;-61
2023/10/30 06:27:06;;;;;;;11.52;2.50;;;;;;;13.71;100.00;99285.53;4936246;29;20078;-63
2023/10/30 06:29:34;;;;;;;16.45;2.90;;;;;;;13.84;100.00;99291.69;4936848;29;20121;-62
2023/10/30 06:32:02;;;;;;;11.50;3.03;;;;;;;13.57;100.00;99308.22;4967256;28;20059;-61
2023/10/30 06:34:32;;;;;;;15.32;2.95;;;;;;;13.60;100.00;99339.84;4937827;29;20056;-61
2023/10/30 06:37:00;;;;;;;12.93;3.00;;;;;;;13.48;100.00;99329.78;4949495;29;20058;-62
2023/10/30 06:39:27;;;;;;;13.82;2.85;;;;;;;13.34;100.00;99332.25;4947566;29;20047;-62
2023/10/30 06:41:56;;;;;;;17.10;3.20;;;;;;;13.30;100.00;99331.38;4941707;29;20055;-62
2023/10/30 06:44:23;;;;;;;11.60;2.83;;;;;;;13.42;100.00;99328.44;4936294;29;20051;-62
2023/10/30 06:46:51;;;;;;;13.82;2.83;;;;;;;13.39;100.00;99329.19;4936427;29;20043;-62
2023/10/30 06:49:20;;;;;;;10.23;2.30;;;;;;;13.50;100.00;99334.94;4935899;29;20054;-62
2023/10/30 06:51:47;;;;;;;9.27;2.55;;;;;;;13.48;100.00;99323.44;4966356;28;20063;-62
2023/10/30 06:54:15;;;;;;;12.00;2.70;;;;;;;13.74;100.00;99314.44;4950805;29;20051;-62
2023/10/30 06:56:42;;;;;;;14.13;3.60;;;;;;;13.59;100.00;99305.06;4935482;29;20059;-62
2023/10/30 06:59:12;;;;;;;12.35;3.42;;;;;;;13.68;100.00;99302.88;4935784;29;20063;-61
2023/10/30 07:01:45;;;;;;;13.43;3.38;;;;;;;13.83;100.00;99292.84;4934769;29;20714;-61
2023/10/30 07:04:15;;;;;;;9.18;3.03;;;;;;;13.61;100.00;99288.09;4935902;29;20062;-63
2023/10/30 07:06:43;;;;;;;16.25;3.50;;;;;;;13.78;100.00;99284.84;4936245;29;20060;-61
2023/10/30 07:09:12;;;;;;;10.90;3.45;;;;;;;13.63;100.00;99278.28;4935944;29;20060;-62
2023/10/30 07:11:39;;;;;;;15.43;3.83;;;;;;;13.78;100.00;99279.31;4935855;29;20048;-63
2023/10/30 07:14:08;;;;;;;16.40;4.60;;;;;;;13.97;100.00;99282.81;4935540;29;20424;-62
2023/10/30 07:16:36;;;;;;;11.20;3.40;;;;;;;13.93;100.00;99287.47;4950212;29;20487;-61
2023/10/30 07:19:22;;;;;;;13.52;3.72;;;;;;;13.89;100.00;99275.56;4935390;29;20051;-63
2023/10/30 07:21:49;;;;;;;9.85;3.72;;;;;;;13.92;100.00;99285.88;4933836;29;20624;-62
2023/10/30 07:24:17;;;;;;;10.18;3.63;;;;;;;13.87;100.00;99288.97;4931869;29;20060;-62
2023/10/30 07:26:44;;;;;;;11.10;3.15;;;;;;;13.86;100.00;99278.28;4947812;28;20052;-62
2023/10/30 07:29:17;;;;;;;9.63;3.28;;;;;;;13.96;100.00;99283.19;4958505;28;20048;-62
2023/10/30 07:31:45;;;;;;;9.35;3.28;;;;;;;13.93;100.00;99273.63;4940264;29;20430;-67
2023/10/30 07:34:18;;;;;;;11.98;3.65;;;;;;;13.95;100.00;99271.31;4943261;29;20043;-65
2023/10/30 07:36:46;;;;;;;13.63;3.20;;;;;;;13.68;100.00;99279.94;4939298;29;20055;-63
2023/10/30 07:39:13;;;;;;;9.80;3.78;;;;;;;13.76;100.00;99271.38;4938941;29;20686;-65
2023/10/30 07:41:40;;;;;;;10.50;3.38;;;;;;;13.72;100.00;99273.28;4934928;29;20058;-64
2023/10/30 07:44:09;;;;;;;15.38;7.05;;;;;;;13.83;100.00;99276.22;4939515;28;20062;-63
2023/10/30 07:46:36;;;;;;;13.23;7.75;;;;;;;13.96;100.00;99272.13;4938905;29;20043;-62
2023/10/30 07:49:07;;;;;;;12.65;4.63;;;;;;;13.93;100.00;99276.41;4948482;29;20063;-62
2023/10/30 07:51:43;;;;;;;10.07;4.07;;;;;;;13.87;100.00;99280.66;4974995;28;20062;-67
2023/10/30 07:54:16;;;;;;;9.32;3.80;;;;;;;13.61;100.00;99286.13;4950587;29;20043;-64
2023/10/30 07:56:44;;;;;;;9.10;3.50;;;;;;;13.77;100.00;99288.78;4960585;28;20051;-62
2023/10/30 07:59:11;;;;;;;10.10;3.92;;;;;;;13.85;100.00;99282.19;4936658;28;20056;-61
2023/10/30 08:01:39;;;;;;;9.88;3.90;;;;;;;13.85;100.00;99271.94;4942419;29;20054;-61
2023/10/30 08:04:09;;;;;;;12.65;3.60;;;;;;;13.80;100.00;99265.91;4937551;29;20062;-62
2023/10/30 08:06:37;;;;;;;11.10;3.72;;;;;;;13.81;100.00;99261.97;4941710;29;20059;-62
2023/10/30 08:09:05;;;;;;;8.40;3.58;;;;;;;13.48;100.00;99263.38;4938616;29;20070;-62
2023/10/30 08:11:32;;;;;;;7.05;3.42;;;;;;;13.44;100.00;99251.44;4943187;29;20047;-62
2023/10/30 08:13:59;;;;;;;7.65;3.45;;;;;;;13.32;100.00;99250.81;4969193;28;20062;-63
2023/10/30 08:16:27;;;;;;;7.78;3.67;;;;;;;13.51;100.00;99254.34;4974697;28;20604;-61
2023/10/30 08:18:54;;;;;;;8.00;3.97;;;;;;;13.37;100.00;99264.38;4985949;28;20060;-61
2023/10/30 08:21:21;;;;;;;9.35;4.15;;;;;;;13.50;100.00;99274.88;4937374;29;20047;-61
2023/10/30 08:23:49;;;;;;;8.02;3.95;;;;;;;13.67;100.00;99281.09;4936801;29;20058;-63
2023/10/30 08:26:16;;;;;;;10.00;3.95;;;;;;;13.92;100.00;99272.06;4957401;28;20082;-62
2023/10/30 08:28:45;;;;;;;10.27;4.35;;;;;;;13.71;100.00;99273.66;4936695;29;20052;-62
2023/10/30 08:31:15;;;;;;;11.17;4.10;;;;;;;13.72;100.00;99270.50;4938197;29;20046;-60
2023/10/30 08:33:42;;;;;;;10.15;4.07;;;;;;;13.50;100.00;99268.53;4937522;29;20059;-61
2023/10/30 08:36:10;;;;;;;11.32;4.20;;;;;;;13.66;100.00;99269.22;4968519;28;20518;-61
2023/10/30 08:38:41;;;;;;;9.18;4.25;;;;;;;13.70;100.00;99263.75;4967570;28;20070;-62
2023/10/30 08:41:14;;;;;;;13.20;4.45;;;;;;;13.80;100.00;99260.38;4937889;29;20434;-63
2023/10/30 08:43:42;;;;;;;11.80;4.75;;;;;;;13.79;100.00;99250.47;4936714;29;20058;-62
2023/10/30 08:46:10;;;;;;;28.70;19.13;;;;;;;13.82;100.00;99252.50;4935008;29;21906;-62
2023/10/30 08:48:37;;;;;;;21.08;10.43;;;;;;;13.91;100.00;99253.84;4969947;28;20070;-62
2023/10/30 08:51:04;;;;;;;12.35;5.18;;;;;;;14.04;100.00;99246.13;4974086;28;20060;-61
2023/10/30 08:53:32;;;;;;;9.95;4.53;;;;;;;14.27;100.00;99246.91;4967220;28;20060;-62
2023/10/30 08:56:02;;;;;;;13.00;4.47;;;;;;;13.97;100.00;99237.72;4939874;29;20056;-65
2023/10/30 08:58:30;;;;;;;;;;;;;;;13.86;100.00;99243.06;4953466;28;20070;-62
2023/10/30 09:00:58;;;;;;;10.15;4.40;;;;;;;13.78;100.00;99244.13;4936945;29;19922;-62
2023/10/30 09:03:25;;;;;;;9.00;4.40;;;;;;;13.88;100.00;99248.25;4967229;28;20052;-59
2023/10/30 09:05:52;;;;;;;9.82;4.50;;;;;;;13.75;100.00;99246.84;4972676;28;20043;-61
2023/10/30 09:08:20;;;;;;;8.68;4.30;;;;;;;13.74;100.00;99239.72;4953922;28;20048;-61
2023/10/30 09:10:49;;;;;;;10.18;4.60;;;;;;;13.83;100.00;99232.75;4942212;29;20059;-62
2023/10/30 09:13:17;;;;;;;8.95;5.00;;;;;;;13.70;100.00;99231.38;4935123;29;20066;-61
2023/10/30 09:15:44;;;;;;;10.30;4.47;;;;;;;13.30;100.00;99212.47;4947898;29;20047;-61
2023/10/30 09:18:12;;;;;;;9.45;4.40;;;;;;;13.38;100.00;99219.75;4940769;29;20052;-62
2023/10/30 09:20:39;;;;;;;10.95;4.60;;;;;;;13.38;100.00;99219.75;4969593;28;20044;-61
2023/10/30 09:23:07;;;;;;;9.82;4.38;;;;;;;13.27;100.00;99226.22;4958954;28;20479;-61
2023/10/30 09:25:34;;;;;;;8.93;3.65;;;;;;;13.33;100.00;99233.88;4943068;29;20044;-61
2023/10/30 09:28:02;;;;;;;10.07;3.88;;;;;;;13.48;100.00;99244.03;4940583;28;20147;-60
2023/10/30 09:30:30;;;;;;;9.98;4.30;;;;;;;13.88;100.00;99253.81;4936825;29;20065;-62
2023/10/30 09:33:01;;;;;;;7.78;4.72;;;;;;;14.02;100.00;99242.94;4969517;28;20058;-61
2023/10/30 09:35:32;;;;;;;;;;;;;;;13.82;100.00;99239.47;4977471;28;20047;-61
2023/10/30 09:37:59;;;;;;;12.55;4.15;;;;;;;13.57;100.00;99241.00;4933513;29;20394;-61
2023/10/30 09:40:27;;;;;;;10.98;3.83;;;;;;;13.73;100.00;99246.41;4945786;29;20067;-61
2023/10/30 09:42:54;;;;;;;12.65;4.32;;;;;;;13.77;100.00;99242.56;4942976;29;20047;-61
2023/10/30 09:45:23;;;;;;;11.27;4.47;;;;;;;13.70;100.00;99247.97;4950757;28;20048;-61
2023/10/30 09:47:53;;;;;;;12.32;4.88;;;;;;;13.79;100.00;99239.41;4949916;28;20056;-62
2023/10/30 09:50:22;;;;;;;12.05;5.38;;;;;;;13.95;100.00;99248.34;4968739;28;20059;-62
2023/10/30 09:52:53;;;;;;;12.82;5.28;;;;;;;13.91;100.00;99247.50;4933042;29;20048;-61
2023/10/30 09:55:24;;;;;;;12.80;5.07;;;;;;;14.01;100.00;99247.69;4967816;28;20047;-62
2023/10/30 09:57:52;;;;;;;12.15;5.50;;;;;;;13.70;100.00;99236.09;4970501;28;20048;-61
2023/10/30 10:00:20;;;;;;;16.40;5.70;;;;;;;13.89;100.00;99231.28;4949111;28;20055;-61
2023/10/30 10:02:47;;;;;;;18.98;10.93;;;;;;;13.98;100.00;99226.25;4941902;29;20039;-61
2023/10/30 10:05:17;;;;;;;11.82;6.28;;;;;;;13.82;100.00;99227.59;4950203;29;20285;-60
2023/10/30 10:07:44;;;;;;;12.65;5.50;;;;;;;13.90;100.00;99204.38;4937459;29;20055;-64
2023/10/30 10:10:14;;;;;;;12.30;5.45;;;;;;;13.82;100.00;99210.97;4935731;29;20380;-63
2023/10/30 10:12:41;;;;;;;;;;;;;;;14.04;100.00;99204.59;4940804;28;20058;-62
2023/10/30 10:15:09;;;;;;;17.63;11.57;;;;;;;14.18;100.00;99202.03;4935425;28;19929;-62
2023/10/30 10:17:46;;;;;;;12.20;5.43;;;;;;;13.95;100.00;99196.56;4953841;28;20075;-62
2023/10/30 10:20:14;;;;;;;18.17;13.30;;;;;;;14.13;100.00;99189.31;4967423;28;20051;-61
2023/10/30 10:22:41;;;;;;;14.70;7.93;;;;;;;14.17;100.00;99189.38;4945991;29;20529;-62
2023/10/30 10:25:10;;;;;;;12.57;5.90;;;;;;;13.81;100.00;99190.03;4966752;28;20058;-62
2023/10/30 10:27:38;;;;;;;12.45;6.32;;;;;;;13.46;100.00;99181.91;4935311;29;20062;-61
2023/10/30 10:30:06;;;;;;;15.30;7.32;;;;;;;13.55;100.00;99174.97;4966496;28;20043;-61
2023/10/30 10:32:34;;;;;;;11.63;6.35;;;;;;;13.70;100.00;99177.97;4937450;29;20051;-61
2023/10/30 10:35:02;;;;;;;12.77;6.63;;;;;;;13.94;100.00;99167.28;4950960;28;20065;-61
2023/10/30 10:37:29;;;;;;;11.57;6.38;;;;;;;14.17;100.00;99158.91;4937181;28;20071;-60
2023/10/30 10:39:57;;;;;;;11.65;7.53;;;;;;;13.83;100.00;99155.25;4939617;29;20051;-63
2023/10/30 10:42:26;;;;;;;16.02;7.68;;;;;;;14.10;100.00;99150.50;4934861;29;20051;-61
2023/10/30 10:44:56;;;;;;;13.35;7.22;;;;;;;13.99;100.00;99138.47;4934895;29;20051;-63
2023/10/30 10:47:24;;;;;;;12.65;7.40;;;;;;;13.74;100.00;99143.66;4933902;29;20051;-62
2023/10/30 10:49:51;;;;;;;12.45;7.50;;;;;;;13.45;100.00;99136.09;4935110;29;20178;-61
2023/10/30 10:52:22;;;;;;;14.93;8.93;;;;;;;13.49;100.00;99120.34;4935076;28;20056;-61
2023/10/30 10:55:29;;;;;;;14.45;7.97;;;;;;;13.71;100.00;99118.69;4926911;29;20165;-60
2023/10/30 10:58:08;;;;;;;15.00;7.27;;;;;;;13.76;100.00;99112.84;4950635;28;20098;-63
2023/10/30 11:00:38;;;;;;;14.33;7.43;;;;;;;14.01;100.00;99102.91;4934084;29;20047;-62
2023/10/30 11:03:08;;;;;;;15.85;6.85;;;;;;;13.96;100.00;99115.13;4965727;28;20123;-63
2023/10/30 11:05:36;;;;;;;14.57;6.72;;;;;;;14.13;100.00;99120.09;4973648;28;20051;-61
2023/10/30 11:08:12;;;;;;;14.98;6.63;;;;;;;14.46;100.00;99116.59;4938718;29;20055;-62
2023/10/30 11:10:46;;;;;;;16.05;6.88;;;;;;;14.64;100.00;99115.59;4931236;29;20455;-61
2023/10/30 11:13:20;;;;;;;14.50;6.97;;;;;;;14.36;100.00;99120.03;4939798;29;20067;-62
2023/10/30 11:15:52;;;;;;;15.10;8.30;;;;;;;14.31;100.00;99120.38;4954168;28;20124;-61
2023/10/30 11:18:21;;;;;;;15.68;8.93;;;;;;;14.49;100.00;99121.34;4969928;28;20055;-61
2023/10/30 11:21:09;;;;;;;18.43;8.57;;;;;;;14.45;100.00;99115.78;4966441;28;20066;-62
2023/10/30 11:23:49;;;;;;;14.85;7.68;;;;;;;14.55;100.00;99106.81;4940254;29;20291;-62
2023/10/30 11:26:44;;;;;;;17.40;7.82;;;;;;;14.51;100.00;99124.56;4941971;29;20052;-61